AAL2138 KIAH-KPHX
Flight info
| Callsign | AAL2138 |
|---|---|
| Flight time | N/A |
| Altitude | 34000 |
| Route | PITZZ5 CRGER ELP DRRVR PINNG1 |
| Aircraft | A21N/M-SDE2E3FGHIJ1RWXY/LB1 |
Departure
| Time | 2026-05-05 03:43 |
|---|---|
| Airport | George Bush Intercontinental Airport (KIAH) |
Arrival
| Time | N/A |
|---|---|
| Airport | Phoenix Sky Harbor International Airport (KPHX) |
| Time | Latitude | Longitude | Altitude | Speed | Heading |
|---|---|---|---|---|---|
| 2026-05-05 03:07 | 29.98817 | -95.34887 | 111 ft | 0 kts | 270° |
| 2026-05-05 03:33 | 29.98817 | -95.34854 | 111 ft | 3 kts | 272° |
| 2026-05-05 03:33 | 29.98813 | -95.34825 | 112 ft | 3 kts | 296° |
| 2026-05-05 03:34 | 29.98806 | -95.34812 | 112 ft | 3 kts | 343° |
| 2026-05-05 03:34 | 29.98800 | -95.34811 | 109 ft | 1 kts | 360° |
| 2026-05-05 03:39 | 29.98806 | -95.34811 | 112 ft | 2 kts | 0° |
| 2026-05-05 03:39 | 29.98830 | -95.34811 | 112 ft | 5 kts | 0° |
| 2026-05-05 03:39 | 29.98875 | -95.34810 | 112 ft | 8 kts | 1° |
| 2026-05-05 03:39 | 29.98939 | -95.34809 | 112 ft | 11 kts | 1° |
| 2026-05-05 03:40 | 29.99001 | -95.34855 | 112 ft | 14 kts | 274° |
| 2026-05-05 03:40 | 29.98995 | -95.34975 | 112 ft | 16 kts | 270° |
| 2026-05-05 03:40 | 29.98996 | -95.35116 | 112 ft | 19 kts | 271° |
| 2026-05-05 03:40 | 29.98998 | -95.35276 | 112 ft | 21 kts | 269° |
| 2026-05-05 03:41 | 29.98997 | -95.35454 | 112 ft | 23 kts | 264° |
| 2026-05-05 03:41 | 29.98888 | -95.35533 | 112 ft | 21 kts | 240° |
| 2026-05-05 03:41 | 29.98821 | -95.35694 | 112 ft | 23 kts | 241° |
| 2026-05-05 03:41 | 29.98773 | -95.35758 | 113 ft | 8 kts | 197° |
| 2026-05-05 03:42 | 29.98714 | -95.35741 | 114 ft | 11 kts | 151° |
| 2026-05-05 03:42 | 29.98563 | -95.35647 | 113 ft | 51 kts | 153° |
| 2026-05-05 03:42 | 29.98047 | -95.35334 | 113 ft | 114 kts | 153° |
| 2026-05-05 03:42 | 29.97177 | -95.34802 | 110 ft | 166 kts | 152° |
| 2026-05-05 03:43 | 29.96084 | -95.34138 | 462 ft | 178 kts | 152° |
| 2026-05-05 03:43 | 29.95013 | -95.33474 | 1203 ft | 171 kts | 166° |
| 2026-05-05 03:43 | 29.93821 | -95.33468 | 1693 ft | 184 kts | 201° |
| 2026-05-05 03:43 | 29.92755 | -95.34487 | 1883 ft | 222 kts | 229° |
| 2026-05-05 03:44 | 29.91917 | -95.36101 | 2343 ft | 241 kts | 236° |
| 2026-05-05 03:44 | 29.91083 | -95.37807 | 3103 ft | 245 kts | 237° |
| 2026-05-05 03:44 | 29.90248 | -95.39516 | 3775 ft | 251 kts | 238° |
| 2026-05-05 03:44 | 29.89379 | -95.41271 | 4477 ft | 255 kts | 239° |
| 2026-05-05 03:45 | 29.88486 | -95.43057 | 5202 ft | 259 kts | 240° |
| 2026-05-05 03:45 | 29.87583 | -95.44869 | 5927 ft | 262 kts | 240° |
| 2026-05-05 03:45 | 29.86666 | -95.46699 | 6588 ft | 266 kts | 240° |
| 2026-05-05 03:45 | 29.85734 | -95.48552 | 7244 ft | 269 kts | 241° |
| 2026-05-05 03:46 | 29.84800 | -95.50433 | 7932 ft | 271 kts | 242° |
| 2026-05-05 03:46 | 29.83877 | -95.52342 | 8653 ft | 274 kts | 243° |
| 2026-05-05 03:46 | 29.83076 | -95.54332 | 9357 ft | 275 kts | 255° |
| 2026-05-05 03:46 | 29.82832 | -95.56501 | 10046 ft | 276 kts | 275° |
| 2026-05-05 03:47 | 29.83367 | -95.58670 | 10386 ft | 293 kts | 295° |
| 2026-05-05 03:47 | 29.84413 | -95.60763 | 10655 ft | 312 kts | 300° |
| 2026-05-05 03:47 | 29.85583 | -95.62961 | 10910 ft | 330 kts | 300° |
| 2026-05-05 03:47 | 29.86796 | -95.65286 | 11159 ft | 346 kts | 300° |
| 2026-05-05 03:48 | 29.88022 | -95.67695 | 11682 ft | 351 kts | 299° |
| 2026-05-05 03:48 | 29.89249 | -95.70145 | 12328 ft | 353 kts | 299° |
| 2026-05-05 03:48 | 29.90470 | -95.72602 | 13001 ft | 354 kts | 299° |
| 2026-05-05 03:48 | 29.91693 | -95.75076 | 13661 ft | 355 kts | 299° |
| 2026-05-05 03:49 | 29.92916 | -95.77557 | 14235 ft | 356 kts | 299° |
| 2026-05-05 03:49 | 29.94145 | -95.80048 | 14762 ft | 358 kts | 299° |
| 2026-05-05 03:49 | 29.95377 | -95.82549 | 15286 ft | 360 kts | 299° |
| 2026-05-05 03:49 | 29.96615 | -95.85063 | 15807 ft | 361 kts | 299° |
| 2026-05-05 03:50 | 29.97860 | -95.87595 | 16312 ft | 363 kts | 298° |
| 2026-05-05 03:50 | 29.99103 | -95.90134 | 16847 ft | 365 kts | 298° |
| 2026-05-05 03:50 | 30.00355 | -95.92693 | 17356 ft | 366 kts | 298° |
| 2026-05-05 03:50 | 30.01606 | -95.95254 | 17847 ft | 367 kts | 298° |
| 2026-05-05 03:51 | 30.02849 | -95.97795 | 18320 ft | 369 kts | 298° |
| 2026-05-05 03:51 | 30.04114 | -96.00374 | 18730 ft | 370 kts | 298° |
| 2026-05-05 03:51 | 30.05377 | -96.02970 | 19161 ft | 371 kts | 298° |
| 2026-05-05 03:51 | 30.06578 | -96.05608 | 19594 ft | 372 kts | 294° |
| 2026-05-05 03:52 | 30.07412 | -96.08434 | 20025 ft | 373 kts | 283° |
| 2026-05-05 03:52 | 30.07890 | -96.11388 | 20456 ft | 375 kts | 281° |
| 2026-05-05 03:52 | 30.08320 | -96.14364 | 20909 ft | 376 kts | 281° |
| 2026-05-05 03:52 | 30.08761 | -96.17345 | 21396 ft | 378 kts | 281° |
| 2026-05-05 03:53 | 30.09217 | -96.20342 | 21887 ft | 379 kts | 281° |
| 2026-05-05 03:53 | 30.09677 | -96.23345 | 22382 ft | 381 kts | 281° |
| 2026-05-05 03:53 | 30.10139 | -96.26360 | 22857 ft | 382 kts | 281° |
| 2026-05-05 03:53 | 30.10606 | -96.29392 | 23330 ft | 384 kts | 281° |
| 2026-05-05 03:54 | 30.11072 | -96.32439 | 23700 ft | 386 kts | 281° |
| 2026-05-05 03:54 | 30.11544 | -96.35495 | 24064 ft | 387 kts | 281° |
| 2026-05-05 03:54 | 30.12010 | -96.38564 | 24411 ft | 389 kts | 281° |
| 2026-05-05 03:54 | 30.12482 | -96.41615 | 24770 ft | 391 kts | 281° |
| 2026-05-05 03:55 | 30.12965 | -96.44717 | 25093 ft | 393 kts | 281° |
| 2026-05-05 03:55 | 30.13443 | -96.47832 | 25419 ft | 395 kts | 281° |
| 2026-05-05 03:55 | 30.13918 | -96.50966 | 25752 ft | 397 kts | 281° |
| 2026-05-05 03:55 | 30.14398 | -96.54117 | 26077 ft | 399 kts | 281° |
| 2026-05-05 03:56 | 30.14880 | -96.57282 | 26418 ft | 401 kts | 281° |
| 2026-05-05 03:56 | 30.15363 | -96.60469 | 26755 ft | 403 kts | 281° |
| 2026-05-05 03:56 | 30.15835 | -96.63670 | 27061 ft | 405 kts | 281° |
| 2026-05-05 03:56 | 30.16308 | -96.66891 | 27372 ft | 407 kts | 281° |
| 2026-05-05 03:57 | 30.16790 | -96.70120 | 27738 ft | 407 kts | 281° |
| 2026-05-05 03:57 | 30.17283 | -96.73347 | 28136 ft | 406 kts | 281° |
| 2026-05-05 03:57 | 30.17760 | -96.76518 | 28521 ft | 406 kts | 281° |
| 2026-05-05 03:57 | 30.18234 | -96.79728 | 28900 ft | 405 kts | 281° |
| 2026-05-05 03:58 | 30.18704 | -96.82937 | 29284 ft | 404 kts | 281° |
| 2026-05-05 03:58 | 30.19180 | -96.86140 | 29639 ft | 404 kts | 281° |
| 2026-05-05 03:58 | 30.19660 | -96.89342 | 29950 ft | 404 kts | 281° |
| 2026-05-05 03:58 | 30.20139 | -96.92545 | 30249 ft | 404 kts | 281° |
| 2026-05-05 03:59 | 30.20617 | -96.95743 | 30579 ft | 402 kts | 281° |
| 2026-05-05 03:59 | 30.21088 | -96.98923 | 30933 ft | 400 kts | 281° |
| 2026-05-05 03:59 | 30.21556 | -97.02084 | 31327 ft | 397 kts | 281° |
| 2026-05-05 03:59 | 30.22015 | -97.05219 | 31715 ft | 394 kts | 281° |
| 2026-05-05 04:00 | 30.22470 | -97.08325 | 32086 ft | 391 kts | 281° |
| 2026-05-05 04:00 | 30.22934 | -97.11415 | 32425 ft | 388 kts | 281° |
| 2026-05-05 04:00 | 30.23402 | -97.14473 | 32740 ft | 386 kts | 281° |
| 2026-05-05 04:00 | 30.23865 | -97.17530 | 32954 ft | 384 kts | 281° |
| 2026-05-05 04:01 | 30.24324 | -97.20574 | 33241 ft | 383 kts | 281° |
| 2026-05-05 04:01 | 30.24773 | -97.23606 | 33514 ft | 382 kts | 281° |
| 2026-05-05 04:01 | 30.25217 | -97.26626 | 33774 ft | 381 kts | 281° |
| 2026-05-05 04:01 | 30.25669 | -97.29641 | 33867 ft | 379 kts | 281° |
| 2026-05-05 04:02 | 30.26549 | -97.35596 | 33852 ft | 378 kts | 281° |
| 2026-05-05 04:02 | 30.27432 | -97.41585 | 33842 ft | 378 kts | 281° |
| 2026-05-05 04:03 | 30.28312 | -97.47584 | 33842 ft | 378 kts | 281° |
| 2026-05-05 04:03 | 30.29196 | -97.53578 | 33840 ft | 378 kts | 281° |
| 2026-05-05 04:04 | 30.30074 | -97.59580 | 33844 ft | 379 kts | 281° |
| 2026-05-05 04:04 | 30.30944 | -97.65570 | 33850 ft | 379 kts | 280° |
| 2026-05-05 04:05 | 30.31809 | -97.71585 | 33851 ft | 379 kts | 281° |
| 2026-05-05 04:05 | 30.32999 | -97.77539 | 33864 ft | 379 kts | 284° |
| 2026-05-05 04:06 | 30.34263 | -97.83473 | 33895 ft | 380 kts | 284° |
| 2026-05-05 04:06 | 30.35520 | -97.89412 | 33907 ft | 380 kts | 284° |
| 2026-05-05 04:07 | 30.36764 | -97.95362 | 33913 ft | 380 kts | 284° |
| 2026-05-05 04:07 | 30.38020 | -98.01282 | 33916 ft | 382 kts | 283° |
| 2026-05-05 04:08 | 30.39282 | -98.07273 | 33913 ft | 383 kts | 283° |
| 2026-05-05 04:08 | 30.40527 | -98.13280 | 33907 ft | 383 kts | 283° |
| 2026-05-05 04:09 | 30.41771 | -98.19279 | 33869 ft | 383 kts | 283° |
| 2026-05-05 04:09 | 30.43024 | -98.25278 | 33875 ft | 382 kts | 283° |
| 2026-05-05 04:10 | 30.44266 | -98.31225 | 33878 ft | 382 kts | 283° |
| 2026-05-05 04:10 | 30.45518 | -98.37236 | 33867 ft | 384 kts | 283° |
| 2026-05-05 04:11 | 30.46751 | -98.43249 | 33879 ft | 384 kts | 283° |
| 2026-05-05 04:11 | 30.47982 | -98.49280 | 33844 ft | 384 kts | 283° |
| 2026-05-05 04:12 | 30.49209 | -98.55311 | 33837 ft | 384 kts | 283° |
| 2026-05-05 04:12 | 30.50433 | -98.61345 | 33841 ft | 384 kts | 283° |
| 2026-05-05 04:13 | 30.51649 | -98.67327 | 33842 ft | 384 kts | 283° |
| 2026-05-05 04:13 | 30.52875 | -98.73349 | 33842 ft | 383 kts | 283° |
| 2026-05-05 04:14 | 30.54078 | -98.79356 | 33836 ft | 382 kts | 283° |
| 2026-05-05 04:14 | 30.55298 | -98.85366 | 33831 ft | 382 kts | 283° |
| 2026-05-05 04:15 | 30.56501 | -98.91372 | 33833 ft | 382 kts | 282° |
| 2026-05-05 04:15 | 30.57705 | -98.97381 | 33814 ft | 382 kts | 282° |
| 2026-05-05 04:16 | 30.58898 | -99.03394 | 33809 ft | 382 kts | 282° |
| 2026-05-05 04:16 | 30.60104 | -99.09404 | 33811 ft | 382 kts | 282° |
| 2026-05-05 04:17 | 30.61306 | -99.15421 | 33802 ft | 382 kts | 282° |
| 2026-05-05 04:17 | 30.62488 | -99.21402 | 33802 ft | 382 kts | 282° |
| 2026-05-05 04:18 | 30.63674 | -99.27408 | 33810 ft | 378 kts | 283° |
| 2026-05-05 04:18 | 30.64853 | -99.33351 | 33793 ft | 378 kts | 283° |
| 2026-05-05 04:19 | 30.66027 | -99.39298 | 33798 ft | 378 kts | 283° |
| 2026-05-05 04:19 | 30.67000 | -99.44243 | 33809 ft | 378 kts | 283° |
| 2026-05-05 04:20 | 30.68172 | -99.50234 | 33823 ft | 383 kts | 282° |
| 2026-05-05 04:20 | 30.69350 | -99.56278 | 33834 ft | 384 kts | 282° |
| 2026-05-05 04:21 | 30.70516 | -99.62329 | 33847 ft | 384 kts | 282° |
| 2026-05-05 04:21 | 30.71690 | -99.68378 | 33846 ft | 383 kts | 282° |
| 2026-05-05 04:22 | 30.72853 | -99.74393 | 33843 ft | 384 kts | 282° |
| 2026-05-05 04:22 | 30.74030 | -99.80448 | 33841 ft | 384 kts | 282° |
| 2026-05-05 04:23 | 30.75200 | -99.86502 | 33834 ft | 384 kts | 282° |
| 2026-05-05 04:23 | 30.76344 | -99.92564 | 33816 ft | 384 kts | 281° |
| 2026-05-05 04:24 | 30.77494 | -99.98626 | 33803 ft | 384 kts | 282° |
| 2026-05-05 04:25 | 30.79267 | -100.07725 | 33788 ft | 384 kts | 282° |
| 2026-05-05 04:25 | 30.80437 | -100.13786 | 33790 ft | 384 kts | 282° |
| 2026-05-05 04:26 | 30.81585 | -100.19809 | 33789 ft | 384 kts | 282° |
| 2026-05-05 04:26 | 30.82724 | -100.25883 | 33792 ft | 383 kts | 281° |
| 2026-05-05 04:27 | 30.83835 | -100.31946 | 33812 ft | 381 kts | 281° |
| 2026-05-05 04:27 | 30.84968 | -100.37973 | 33801 ft | 381 kts | 282° |
| 2026-05-05 04:28 | 30.86115 | -100.44000 | 33821 ft | 381 kts | 281° |
| 2026-05-05 04:28 | 30.87238 | -100.50039 | 33826 ft | 381 kts | 281° |
| 2026-05-05 04:29 | 30.88359 | -100.56075 | 33829 ft | 381 kts | 281° |
| 2026-05-05 04:29 | 30.89481 | -100.62112 | 33831 ft | 382 kts | 281° |
| 2026-05-05 04:30 | 30.90614 | -100.68155 | 33831 ft | 382 kts | 281° |
| 2026-05-05 04:30 | 30.91734 | -100.74166 | 33818 ft | 382 kts | 281° |
| 2026-05-05 04:31 | 30.92852 | -100.80211 | 33807 ft | 382 kts | 281° |
| 2026-05-05 04:31 | 30.93961 | -100.86254 | 33806 ft | 382 kts | 281° |
| 2026-05-05 04:32 | 30.95073 | -100.92306 | 33801 ft | 382 kts | 281° |
| 2026-05-05 04:32 | 30.96182 | -100.98350 | 33802 ft | 382 kts | 281° |
| 2026-05-05 04:33 | 30.97287 | -101.04397 | 33805 ft | 382 kts | 281° |
| 2026-05-05 04:33 | 30.98393 | -101.10454 | 33808 ft | 382 kts | 281° |
| 2026-05-05 04:34 | 30.99481 | -101.16467 | 33803 ft | 382 kts | 281° |
| 2026-05-05 04:34 | 31.00585 | -101.22515 | 33804 ft | 381 kts | 281° |
| 2026-05-05 04:35 | 31.01681 | -101.28574 | 33802 ft | 381 kts | 281° |
| 2026-05-05 04:35 | 31.02769 | -101.34621 | 33809 ft | 378 kts | 280° |
| 2026-05-05 04:36 | 31.03877 | -101.40621 | 33794 ft | 379 kts | 280° |
| 2026-05-05 04:36 | 31.04965 | -101.46620 | 33792 ft | 379 kts | 280° |
| 2026-05-05 04:37 | 31.06027 | -101.52644 | 33794 ft | 379 kts | 280° |
| 2026-05-05 04:37 | 31.07094 | -101.58615 | 33794 ft | 378 kts | 280° |
| 2026-05-05 04:38 | 31.08169 | -101.64621 | 33787 ft | 378 kts | 280° |
| 2026-05-05 04:38 | 31.09237 | -101.70655 | 33783 ft | 380 kts | 280° |
| 2026-05-05 04:39 | 31.10320 | -101.76696 | 33779 ft | 380 kts | 279° |
| 2026-05-05 04:39 | 31.11383 | -101.82738 | 33779 ft | 380 kts | 279° |
| 2026-05-05 04:40 | 31.12452 | -101.88779 | 33778 ft | 380 kts | 279° |
| 2026-05-05 04:40 | 31.13513 | -101.94825 | 33777 ft | 380 kts | 279° |
| 2026-05-05 04:41 | 31.14566 | -102.00876 | 33777 ft | 380 kts | 279° |
| 2026-05-05 04:41 | 31.15614 | -102.06882 | 33771 ft | 380 kts | 279° |
| 2026-05-05 04:42 | 31.16669 | -102.12932 | 33783 ft | 380 kts | 279° |
| 2026-05-05 04:42 | 31.17721 | -102.18985 | 33758 ft | 380 kts | 279° |
| 2026-05-05 04:43 | 31.18768 | -102.25029 | 33753 ft | 380 kts | 279° |
| 2026-05-05 04:43 | 31.19810 | -102.31077 | 33757 ft | 380 kts | 279° |
| 2026-05-05 04:44 | 31.20839 | -102.37133 | 33758 ft | 380 kts | 279° |
| 2026-05-05 04:44 | 31.21884 | -102.43177 | 33765 ft | 377 kts | 279° |
| 2026-05-05 04:45 | 31.22907 | -102.49153 | 33740 ft | 378 kts | 278° |
| 2026-05-05 04:45 | 31.23924 | -102.55170 | 33731 ft | 377 kts | 278° |
| 2026-05-05 04:46 | 31.24935 | -102.61197 | 33730 ft | 378 kts | 278° |
| 2026-05-05 04:46 | 31.25958 | -102.67232 | 33721 ft | 378 kts | 278° |
| 2026-05-05 04:47 | 31.26968 | -102.73263 | 33725 ft | 378 kts | 278° |
| 2026-05-05 04:47 | 31.27985 | -102.79283 | 33730 ft | 377 kts | 278° |
| 2026-05-05 04:48 | 31.28996 | -102.85290 | 33716 ft | 377 kts | 278° |
| 2026-05-05 04:48 | 31.30005 | -102.91263 | 33714 ft | 377 kts | 278° |
| 2026-05-05 04:49 | 31.31007 | -102.97281 | 33709 ft | 377 kts | 278° |
| 2026-05-05 04:49 | 31.32006 | -103.03295 | 33708 ft | 377 kts | 278° |
| 2026-05-05 04:50 | 31.33012 | -103.09312 | 33705 ft | 377 kts | 278° |
| 2026-05-05 04:50 | 31.34011 | -103.15340 | 33718 ft | 379 kts | 278° |
| 2026-05-05 04:51 | 31.35016 | -103.21427 | 33762 ft | 381 kts | 278° |
| 2026-05-05 04:51 | 31.36017 | -103.27520 | 33798 ft | 381 kts | 278° |
| 2026-05-05 04:52 | 31.37017 | -103.33619 | 33832 ft | 381 kts | 278° |
| 2026-05-05 04:52 | 31.38009 | -103.39698 | 33872 ft | 379 kts | 277° |
| 2026-05-05 04:53 | 31.38986 | -103.45717 | 33873 ft | 379 kts | 277° |
| 2026-05-05 04:53 | 31.39973 | -103.51785 | 33863 ft | 381 kts | 277° |
| 2026-05-05 04:54 | 31.40960 | -103.57887 | 33868 ft | 381 kts | 277° |
| 2026-05-05 04:54 | 31.41945 | -103.63995 | 33853 ft | 382 kts | 277° |
| 2026-05-05 04:55 | 31.42928 | -103.70107 | 33826 ft | 382 kts | 277° |
| 2026-05-05 04:55 | 31.43897 | -103.76179 | 33796 ft | 381 kts | 277° |
| 2026-05-05 04:56 | 31.44879 | -103.82321 | 33773 ft | 382 kts | 277° |
| 2026-05-05 04:56 | 31.45847 | -103.88407 | 33734 ft | 384 kts | 277° |
| 2026-05-05 04:57 | 31.46832 | -103.94607 | 33744 ft | 385 kts | 277° |
| 2026-05-05 04:57 | 31.47804 | -104.00732 | 33747 ft | 385 kts | 277° |
| 2026-05-05 04:58 | 31.48777 | -104.06900 | 33748 ft | 385 kts | 277° |
| 2026-05-05 04:58 | 31.49744 | -104.13063 | 33759 ft | 385 kts | 277° |
| 2026-05-05 04:59 | 31.50712 | -104.19241 | 33753 ft | 385 kts | 277° |
| 2026-05-05 04:59 | 31.51675 | -104.25404 | 33764 ft | 382 kts | 276° |
| 2026-05-05 05:00 | 31.52623 | -104.31525 | 33760 ft | 381 kts | 276° |
| 2026-05-05 05:00 | 31.53572 | -104.37654 | 33763 ft | 384 kts | 276° |
| 2026-05-05 05:01 | 31.54525 | -104.43830 | 33759 ft | 385 kts | 276° |
| 2026-05-05 05:01 | 31.55470 | -104.49965 | 33758 ft | 385 kts | 276° |
| 2026-05-05 05:02 | 31.56420 | -104.56140 | 33757 ft | 385 kts | 276° |
| 2026-05-05 05:02 | 31.57362 | -104.62316 | 33753 ft | 384 kts | 276° |
| 2026-05-05 05:03 | 31.58290 | -104.68492 | 33752 ft | 384 kts | 276° |
| 2026-05-05 05:03 | 31.59237 | -104.74668 | 33754 ft | 385 kts | 276° |
| 2026-05-05 05:04 | 31.60180 | -104.80838 | 33757 ft | 384 kts | 276° |
| 2026-05-05 05:04 | 31.61109 | -104.86982 | 33753 ft | 384 kts | 276° |
| 2026-05-05 05:05 | 31.62040 | -104.93167 | 33771 ft | 384 kts | 276° |
| 2026-05-05 05:05 | 31.62959 | -104.99284 | 33748 ft | 380 kts | 275° |
| 2026-05-05 05:06 | 31.63874 | -105.05396 | 33733 ft | 380 kts | 276° |
| 2026-05-05 05:06 | 31.64630 | -105.10475 | 33738 ft | 380 kts | 275° |
| 2026-05-05 05:07 | 31.65536 | -105.16585 | 33737 ft | 380 kts | 275° |
| 2026-05-05 05:07 | 31.66442 | -105.22692 | 33735 ft | 380 kts | 275° |
| 2026-05-05 05:08 | 31.67347 | -105.28811 | 33739 ft | 380 kts | 275° |
| 2026-05-05 05:08 | 31.68244 | -105.34909 | 33747 ft | 378 kts | 275° |
| 2026-05-05 05:09 | 31.69131 | -105.40963 | 33730 ft | 378 kts | 275° |
| 2026-05-05 05:09 | 31.70021 | -105.47056 | 33730 ft | 378 kts | 275° |
| 2026-05-05 05:10 | 31.70907 | -105.53149 | 33735 ft | 378 kts | 275° |
| 2026-05-05 05:10 | 31.71793 | -105.59249 | 33729 ft | 378 kts | 275° |
| 2026-05-05 05:11 | 31.72666 | -105.65293 | 33728 ft | 377 kts | 274° |
| 2026-05-05 05:11 | 31.73543 | -105.71370 | 33732 ft | 377 kts | 274° |
| 2026-05-05 05:12 | 31.74417 | -105.77450 | 33728 ft | 377 kts | 274° |
| 2026-05-05 05:12 | 31.75285 | -105.83523 | 33726 ft | 377 kts | 274° |
| 2026-05-05 05:13 | 31.76151 | -105.89596 | 33731 ft | 377 kts | 274° |
| 2026-05-05 05:13 | 31.77009 | -105.95645 | 33718 ft | 377 kts | 274° |
| 2026-05-05 05:14 | 31.77870 | -106.01727 | 33787 ft | 376 kts | 274° |
| 2026-05-05 05:14 | 31.78724 | -106.07776 | 33814 ft | 374 kts | 274° |
| 2026-05-05 05:15 | 31.79573 | -106.13830 | 33883 ft | 374 kts | 274° |
| 2026-05-05 05:15 | 31.80415 | -106.19831 | 33927 ft | 374 kts | 274° |
| 2026-05-05 05:16 | 31.81260 | -106.25884 | 33966 ft | 374 kts | 274° |
| 2026-05-05 05:16 | 31.82084 | -106.31938 | 33978 ft | 374 kts | 273° |
| 2026-05-05 05:17 | 31.82867 | -106.37963 | 34005 ft | 372 kts | 273° |
| 2026-05-05 05:17 | 31.83645 | -106.43937 | 33994 ft | 372 kts | 273° |
| 2026-05-05 05:18 | 31.84429 | -106.49959 | 33984 ft | 372 kts | 273° |
| 2026-05-05 05:18 | 31.85211 | -106.55979 | 33986 ft | 372 kts | 273° |
| 2026-05-05 05:19 | 31.85987 | -106.61992 | 34020 ft | 372 kts | 273° |
| 2026-05-05 05:19 | 31.86764 | -106.68013 | 34023 ft | 372 kts | 273° |
| 2026-05-05 05:20 | 31.87529 | -106.73985 | 34016 ft | 372 kts | 272° |
| 2026-05-05 05:20 | 31.88299 | -106.80019 | 34020 ft | 372 kts | 272° |
| 2026-05-05 05:21 | 31.89067 | -106.86045 | 33977 ft | 372 kts | 272° |
| 2026-05-05 05:21 | 31.89450 | -106.89053 | 33767 ft | 372 kts | 272° |
| 2026-05-05 05:21 | 31.89831 | -106.92065 | 33763 ft | 372 kts | 272° |
| 2026-05-05 05:22 | 31.90593 | -106.98091 | 33777 ft | 372 kts | 272° |
| 2026-05-05 05:22 | 31.91345 | -107.04080 | 33766 ft | 372 kts | 272° |
| 2026-05-05 05:23 | 31.92098 | -107.10091 | 33771 ft | 370 kts | 272° |
| 2026-05-05 05:23 | 31.92844 | -107.16102 | 33780 ft | 371 kts | 272° |
| 2026-05-05 05:24 | 31.93592 | -107.22123 | 33779 ft | 371 kts | 272° |